createdAt,value
2014-08-16T06:11:29.512Z,100741
2014-08-16T06:11:47.700Z,100735
2014-08-16T06:12:05.887Z,100738
2014-08-16T06:12:24.090Z,100738
2014-08-16T06:12:42.280Z,100738
2014-08-16T06:13:00.467Z,100744
2014-08-16T06:13:18.670Z,100744
2014-08-16T06:13:36.860Z,100750
2014-08-16T06:13:55.047Z,100741
2014-08-16T06:14:13.235Z,100738
2014-08-16T06:14:31.438Z,100744
2014-08-16T06:14:49.627Z,100741
2014-08-16T06:15:07.815Z,100750
2014-08-16T06:15:26.002Z,100741
2014-08-16T06:15:44.208Z,100747
2014-08-16T06:16:02.395Z,100735
2014-08-16T06:16:20.583Z,100750
2014-08-16T06:16:38.770Z,100747
2014-08-16T06:16:56.960Z,100744
2014-08-16T06:17:15.147Z,100741
2014-08-16T06:17:33.350Z,100741
2014-08-16T06:17:51.540Z,100741
2014-08-16T06:18:09.727Z,100744
2014-08-16T06:18:27.915Z,100738
2014-08-16T06:18:46.102Z,100750
2014-08-16T06:19:04.307Z,100750
2014-08-16T06:19:22.495Z,100750
2014-08-16T06:19:40.682Z,100753
2014-08-16T06:19:58.887Z,100758
2014-08-16T06:20:17.075Z,100753
2014-08-16T06:20:35.262Z,100744
2014-08-16T06:20:53.450Z,100750
2014-08-16T06:21:11.639Z,100756
2014-08-16T06:21:29.843Z,100741
2014-08-16T06:21:48.030Z,100753
2014-08-16T06:22:06.220Z,100750
2014-08-16T06:22:24.423Z,100753
2014-08-16T06:22:42.610Z,100756
2014-08-16T06:23:00.798Z,100756
2014-08-16T06:23:18.987Z,100750
2014-08-16T06:23:37.175Z,100758
2014-08-16T06:23:55.362Z,100750
2014-08-16T06:24:13.552Z,100750
2014-08-16T06:24:31.755Z,100753
2014-08-16T06:24:49.942Z,100756
2014-08-16T06:25:08.130Z,100753
2014-08-16T06:25:26.319Z,100753
2014-08-16T06:25:44.507Z,100750
2014-08-16T06:26:02.694Z,100758
2014-08-16T06:26:20.899Z,100750
2014-08-16T06:26:39.087Z,100750
2014-08-16T06:26:57.274Z,100756
2014-08-16T06:27:15.478Z,100758
2014-08-16T06:27:33.667Z,100747
2014-08-16T06:27:51.870Z,100744
2014-08-16T06:28:10.058Z,100750
2014-08-16T06:28:28.248Z,100750
2014-08-16T06:28:46.436Z,100756
2014-08-16T06:29:04.623Z,100741
2014-08-16T06:29:22.811Z,100750
2014-08-16T06:29:40.999Z,100756
2014-08-16T06:29:59.187Z,100767
2014-08-16T06:30:17.390Z,100761
2014-08-16T06:30:35.580Z,100753
2014-08-16T06:30:53.768Z,100756
2014-08-16T06:31:11.955Z,100758
2014-08-16T06:31:30.158Z,100761
2014-08-16T06:31:48.331Z,100750
2014-08-16T06:32:06.519Z,100756
2014-08-16T06:32:24.706Z,100753
2014-08-16T06:32:42.912Z,100761
2014-08-16T06:33:01.100Z,100756
2014-08-16T06:33:19.287Z,100750
2014-08-16T06:33:37.475Z,100756
2014-08-16T06:33:55.664Z,100761
2014-08-16T17:28:35.828Z,100857
2014-08-16T17:28:54.031Z,100832
2014-08-16T17:29:12.220Z,100837
2014-08-16T17:29:30.423Z,100854
2014-08-16T17:29:48.611Z,100843
2014-08-16T17:30:06.814Z,100854
2014-08-16T17:30:25.004Z,100845
2014-08-16T17:30:43.191Z,100838
2014-08-16T17:31:01.394Z,100851
2014-08-16T17:31:19.584Z,100838
2014-08-16T17:31:37.771Z,100857
2014-08-16T17:31:55.959Z,100838
2014-08-16T17:32:14.162Z,100848
2014-08-16T17:32:32.351Z,100835
2014-08-16T17:32:50.554Z,100848
2014-08-16T17:33:08.742Z,100838
2014-08-16T17:33:26.931Z,100854
2014-08-16T17:33:45.135Z,100848
2014-08-16T17:34:03.322Z,100844
2014-08-16T17:34:21.510Z,100845
2014-08-16T17:34:39.715Z,100838
2014-08-16T17:34:57.902Z,100838
2014-08-16T17:35:16.090Z,100835
2014-08-16T17:35:34.295Z,100844
2014-08-16T17:35:52.482Z,100848
2014-08-16T17:36:10.748Z,100832
2014-08-16T17:36:28.935Z,100845
2014-08-16T17:36:47.141Z,100845
2014-08-16T17:37:05.328Z,100848
2014-08-16T17:37:23.531Z,100844
2014-08-16T17:37:41.721Z,100844
2014-08-16T17:37:59.908Z,100832
2014-08-16T17:38:18.096Z,100832
2014-08-16T17:38:36.299Z,100844
2014-08-16T17:38:54.504Z,100838
2014-08-16T17:39:12.691Z,100838
2014-08-16T17:39:30.895Z,100845
2014-08-16T17:39:49.084Z,100835
2014-08-16T17:40:07.287Z,100829
2014-08-16T17:40:25.475Z,100846
2014-08-16T17:40:43.664Z,100846
2014-08-16T17:41:01.867Z,100844
2014-08-16T17:41:20.055Z,100835
2014-08-16T17:41:38.260Z,100838
2014-08-16T17:41:56.447Z,100826
2014-08-16T17:42:14.651Z,100832
2014-08-16T17:42:32.838Z,100823
2014-08-16T17:42:51.043Z,100844
2014-08-16T17:43:09.231Z,100829
2014-08-16T17:43:27.434Z,100835
2014-08-16T17:43:45.623Z,100832
2014-08-16T17:44:03.826Z,100838
2014-08-16T17:44:22.014Z,100835
2014-08-16T17:44:40.217Z,100826
2014-08-16T17:44:58.407Z,100838
2014-08-16T17:45:16.610Z,100846
2014-08-16T17:45:34.797Z,100838
2014-08-16T17:45:53.002Z,100835
2014-08-16T17:46:11.190Z,100835
2014-08-16T17:46:29.393Z,100835
2014-08-16T17:46:47.580Z,100838
2014-08-16T17:47:05.786Z,100846
2014-08-16T17:47:23.973Z,100844
2014-08-16T17:47:42.176Z,100832
2014-08-16T17:48:00.366Z,100846
2014-08-16T17:48:18.569Z,100835
2014-08-16T17:48:36.756Z,100846
2014-08-16T17:48:54.959Z,100846
2014-08-16T17:49:13.150Z,100851
2014-08-16T17:49:31.353Z,100846
2014-08-16T17:49:49.541Z,100846
2014-08-16T17:50:07.746Z,100849
2014-08-16T17:50:25.933Z,100846
2014-08-16T17:50:44.121Z,100844
2014-08-16T17:51:02.324Z,100849
2014-08-16T17:51:20.528Z,100849
2014-08-16T17:51:38.715Z,100846
2014-08-16T17:51:56.919Z,100838
2014-08-16T17:52:15.109Z,100851
2014-08-16T17:52:33.297Z,100849
2014-08-16T17:52:51.500Z,100846
2014-08-16T17:53:09.687Z,100849
2014-08-16T17:53:27.891Z,100844
2014-08-16T17:53:46.094Z,100838
2014-08-16T17:54:04.282Z,100838
2014-08-16T17:54:22.471Z,100846
2014-08-16T17:54:40.675Z,100844
2014-08-16T17:54:58.878Z,100849
2014-08-16T17:55:17.065Z,100846
2014-08-16T17:55:35.270Z,100835
2014-08-16T17:55:53.458Z,100838
2014-08-16T17:56:11.661Z,100849
2014-08-16T17:56:29.850Z,100849
2014-08-16T17:56:48.054Z,100854
2014-08-16T17:57:06.241Z,100844
2014-08-16T17:57:24.429Z,100838
2014-08-16T18:45:08.256Z,100865
2014-08-16T18:45:26.443Z,100874
2014-08-16T18:45:44.631Z,100871
2014-08-16T18:46:02.836Z,100868
2014-08-16T18:46:21.024Z,100863
2014-08-16T18:46:39.211Z,100871
2014-08-16T18:46:57.416Z,100860
2014-08-16T18:47:15.604Z,100863
2014-08-16T18:47:33.807Z,100868
2014-08-16T18:47:51.994Z,100865
2014-08-16T18:48:10.185Z,100863
2014-08-16T18:48:28.404Z,100866
2014-08-16T18:48:46.591Z,100866
2014-08-16T18:49:04.780Z,100863
2014-08-16T18:49:22.983Z,100860
2014-08-16T18:49:41.170Z,100866
2014-08-16T18:49:59.373Z,100871
2014-08-16T18:50:17.579Z,100871
2014-08-16T18:50:35.767Z,100868
2014-08-16T18:50:53.954Z,100877
2014-08-16T18:51:12.159Z,100866
2014-08-16T18:51:30.346Z,100863
2014-08-16T21:59:54.254Z,100892
2014-08-16T22:00:12.459Z,100890
2014-08-16T22:00:30.647Z,100887
2014-08-16T22:00:48.834Z,100884
2014-08-16T22:01:07.037Z,100881
2014-08-16T22:01:25.227Z,100890
2014-08-16T22:01:43.414Z,100884
2014-08-16T22:02:01.602Z,100895
2014-08-16T22:02:19.792Z,100890
2014-08-16T22:02:37.980Z,100884
2014-08-16T22:02:56.183Z,100884
2014-08-16T22:03:14.370Z,100895
2014-08-16T22:03:32.560Z,100895
2014-08-16T22:03:50.747Z,100895
2014-08-16T22:04:08.935Z,100901
2014-08-16T22:04:27.123Z,100890
2014-08-16T22:04:45.326Z,100890
2014-08-16T22:05:03.514Z,100878
2014-08-16T22:05:21.701Z,100878
2014-08-16T22:05:39.892Z,100887
2014-08-16T22:05:58.079Z,100887
2014-08-16T22:06:16.267Z,100881
2014-08-16T22:06:34.455Z,100892
2014-08-16T22:06:52.659Z,100887
2014-08-16T22:07:10.846Z,100889
2014-08-16T22:07:29.034Z,100890
2014-08-16T22:07:47.223Z,100887
2014-08-16T22:08:05.411Z,100898
2014-08-16T22:08:23.629Z,100892
2014-08-16T22:08:41.820Z,100889
2014-08-16T22:09:00.007Z,100884
2014-08-16T22:09:18.195Z,100887
2014-08-16T22:09:36.382Z,100889
2014-08-16T22:09:54.587Z,100887
2014-08-16T22:10:12.775Z,100878
2014-08-16T22:10:30.962Z,100889
2014-08-16T22:10:49.152Z,100889
2014-08-16T22:11:07.339Z,100887
2014-08-16T22:11:25.543Z,100884
2014-08-16T22:11:43.730Z,100889
2014-08-16T22:12:01.920Z,100895
2014-08-16T22:12:20.107Z,100892
2014-08-16T22:12:38.310Z,100884
2014-08-16T22:12:56.484Z,100889
2014-08-16T22:13:14.672Z,100884
2014-08-16T22:13:32.875Z,100889
2014-08-16T22:13:51.062Z,100884
2014-08-16T22:14:09.252Z,100884
2014-08-16T22:14:27.439Z,100878
2014-08-16T22:14:45.627Z,100889
2014-08-16T22:15:03.816Z,100886
2014-08-16T22:15:22.004Z,100878
2014-08-16T22:15:40.191Z,100889
2014-08-16T22:15:58.394Z,100889
2014-08-16T22:16:16.584Z,100878
2014-08-16T22:16:34.771Z,100892
2014-08-16T22:16:52.959Z,100884
2014-08-16T22:17:11.148Z,100886
2014-08-16T22:17:29.336Z,100889
2014-08-16T22:17:47.523Z,100886
2014-08-16T22:18:05.711Z,100886
2014-08-16T22:18:23.916Z,100878
2014-08-16T22:18:42.103Z,100883
2014-08-16T22:19:00.291Z,100892
2014-08-16T22:19:18.480Z,100886
2014-08-16T22:19:36.668Z,100892
2014-08-16T22:19:54.855Z,100883
2014-08-16T22:20:13.043Z,100889
2014-08-16T22:20:31.248Z,100889
2014-08-16T22:20:49.436Z,100892
2014-08-16T22:21:07.623Z,100889
2014-08-16T22:21:25.813Z,100892
2014-08-16T22:21:44.000Z,100889
2014-08-16T22:22:02.188Z,100889
2014-08-16T22:22:20.375Z,100886
2014-08-16T22:22:38.565Z,100889
2014-08-16T22:22:56.752Z,100886
2014-08-16T22:23:14.955Z,100889
2014-08-16T22:23:33.145Z,100889
2014-08-16T22:23:51.332Z,100892
2014-08-16T22:24:09.520Z,100886
2014-08-16T22:24:27.707Z,100881
2014-08-16T22:24:45.897Z,100875
2014-08-16T22:25:04.084Z,100892
2014-08-16T22:25:22.272Z,100886
2014-08-16T22:25:40.462Z,100889
2014-08-16T22:25:58.650Z,100889
2014-08-16T22:26:16.853Z,100889
2014-08-16T22:26:35.040Z,100883
2014-08-16T22:26:53.244Z,100886
2014-08-16T22:27:11.432Z,100880
2014-08-16T22:27:29.619Z,100880
2014-08-16T22:27:47.810Z,100886
2014-08-16T22:28:05.997Z,100883
2014-08-16T22:28:24.185Z,100886
2014-08-16T22:28:42.372Z,100880
2014-08-16T22:29:00.577Z,100880
2014-08-16T22:29:18.764Z,100892
2014-08-16T22:29:36.952Z,100875
2014-08-16T22:29:55.142Z,100883
2014-08-16T22:30:13.330Z,100883
2014-08-16T22:30:31.517Z,100878
2014-08-16T22:30:49.720Z,100883
2014-08-16T22:31:07.910Z,100872
2014-08-16T22:31:26.097Z,100880
2014-08-16T22:31:44.285Z,100875
2014-08-16T22:32:02.474Z,100877
2014-08-16T22:32:20.662Z,100875
2014-08-16T22:32:38.865Z,100875
2014-08-16T22:32:57.052Z,100877
2014-08-16T22:33:15.242Z,100883
2014-08-16T22:33:33.429Z,100877
